BVY weather

Beverly Municipal Airport
Beverly, Massachusetts, United States

Public forecast

Using degrees Fahrenheit for public forecast. Weather courtesy of forecast.io.

Current aviation weather report (METAR) for Beverly Municipal Airport

Retrieved 2019/12/06 11:53 UTC (59 minutes ago):

KBVY 061153Z 24003KT 10SM CLR M05/M11 A3006 RMK AO2 SLP177 T10501106 11017 21056 51010

Closest aviation forecast (TAF) to Beverly Municipal Airport

Closest forecast is General Edward Lawrence Logan International Airport, 13.8 nm (25.5 km) SSW. Retrieved 2019/12/06 12:30 UTC (22 minutes ago):

TAF KBOS 061122Z 0612/0718 27010KT P6SM SCT080 FM061500 24010KT P6SM BKN050 FM062100 22006KT 3SM -SN OVC025 FM070000 26006KT P6SM OVC030 FM070300 31010KT P6SM BKN040